Zamyn-Uud, Mongolia
Current Conditions -  °F | °C
As of 1:00 PM on Saturday 20 Dec 2014 (Local Time) from ZBHH Reporting Station
Few Clouds Few Clouds  
Wind Chill:   Ceiling: Unl
Heat Index: 16°   Visibility: 6mi
Dew Point:   Wind: 7mph
Humidity: 49%   Direction: 240°WSW
Pressure: 30.27"   Gusts: NA
Location:  43.73°N, 111.9°E
Report Text: ZBHH 200500Z 24003MPS 200V270 9999 FEW040 M09/M18 Q1025 NOSIG
Loading
Personal Weather Stations






























Interactive Weather Map New forecast layout! Learn more

10-Day Weather Forecast

Advertisements
Track Severe Weather on mobile